KSHN/SHN METAR and TAF weather

Enter ICAO airport designator
Station Type Date Time Source
KSHN METAR 2022/12/04 05:53 UTC NOAA

KSHN 040553Z AUTO 02005KT 10SM CLR 03/M02 A3007 RMK AO2 SLP187 T00281022 10044 20022 55002


Station Type Date Time Source
KSHN Decoded METAR 2022/12/04 05:53 UTC NOAA

SHELTON SANDERSON FIELD, WA, United States (KSHN) 47-14N 123-08W 82M
Dec 04, 2022 - 12:53 AM EST / 2022.12.04 0553 UTC
Wind: from the NNE (020 degrees) at 6 MPH (5 KT):0
Visibility: 10 mile(s):0
Sky conditions: clear
Temperature: 37.0 F (2.8 C)
Dew Point: 28.0 F (-2.2 C)
Relative Humidity: 69%
Pressure (altimeter): 30.07 in. Hg (1018 hPa)
Pressure tendency: 0.01 inches (0.2 hPa) lower than three hours ago
ob: KSHN 040553Z AUTO 02005KT 10SM CLR 03/M02 A3007 RMK AO2 SLP187 T00281022 10044 20022 55002
cycle: 6

Station Type Date Time Source
KSHN TAF UTC NOAA

Error!

Example: see airport list